Khorramabad, Iran
Current Conditions -  °F | °C
As of 10:00 AM on Sunday 26 Oct 2014 (Local Time) from OICK Reporting Station
Clear Clear  
Wind Chill: 66°   Ceiling: Unl
Heat Index: 66°   Visibility: 6mi
Dew Point: 41°   Wind: 0mph
Humidity: 40%   Direction: NA
Pressure: 30.15"   Gusts: NA
Location:  33.47°N, 48.35°E
Report Text: OICK 260700Z 00000KT CAVOK 19/05 Q1021
Loading
Personal Weather Stations






























Interactive Weather Map New forecast layout! Learn more

10-Day Weather Forecast

Advertisements
Track Severe Weather on mobile